Time;durP1;ratioP1;P1;durP2;ratioP2;P2;SDS_P1;SDS_P2;PMS_P1;PMS_P2;Temp;Humidity;BMP_temperature;BMP_pressure;BME280_temperature;BME280_humidity;BME280_pressure;Samples;Min_cycle;Max_cycle;Signal;HPM_P1;HPM_P2
2023/10/05 00:01:05;;;;;;;87.28;83.38;;;;;;;18.20;56.19;102239.84;4966946;28;20294;-67
2023/10/05 00:03:32;;;;;;;87.22;83.13;;;;;;;18.20;56.55;102236.28;4968901;28;20026;-69
2023/10/05 00:06:13;;;;;;;87.68;83.75;;;;;;;18.17;56.12;102232.97;4961010;28;20066;-67
2023/10/05 00:08:40;;;;;;;86.25;82.20;;;;;;;18.17;56.45;102235.72;4963391;28;20035;-67
2023/10/05 00:11:06;;;;;;;87.70;83.28;;;;;;;18.16;56.47;102242.25;4967560;28;20093;-67
2023/10/05 00:13:34;;;;;;;84.35;80.55;;;;;;;18.15;56.48;102246.06;4969711;28;20038;-67
2023/10/05 00:15:59;;;;;;;85.32;81.13;;;;;;;18.16;56.15;102244.16;4963375;28;20114;-66
2023/10/05 00:18:26;;;;;;;82.70;79.00;;;;;;;18.14;56.34;102247.19;4962298;28;20122;-67
2023/10/05 00:20:53;;;;;;;86.22;81.68;;;;;;;18.14;56.24;102251.78;4955331;28;20058;-67
2023/10/05 00:23:19;;;;;;;84.65;80.85;;;;;;;18.12;56.58;102256.72;4965441;28;20039;-67
2023/10/05 00:25:45;;;;;;;83.30;79.40;;;;;;;18.11;56.43;102249.56;4967451;28;20043;-68
2023/10/05 00:28:11;;;;;;;85.22;81.22;;;;;;;18.10;55.98;102254.22;4971119;28;20037;-67
2023/10/05 00:30:37;;;;;;;83.80;79.65;;;;;;;18.09;56.25;102252.59;4964022;28;20043;-67
2023/10/05 00:33:09;;;;;;;84.22;80.22;;;;;;;18.09;56.28;102257.22;4960089;28;20058;-67
2023/10/05 00:35:37;;;;;;;84.28;80.53;;;;;;;18.08;56.15;102258.31;4967922;28;20989;-67
2023/10/05 00:38:12;;;;;;;84.15;80.25;;;;;;;18.06;56.04;102258.53;4956986;28;20089;-67
2023/10/05 00:41:04;;;;;;;85.40;81.60;;;;;;;18.06;56.24;102257.72;4954290;28;20054;-66
2023/10/05 00:43:25;;;;;;;84.88;80.97;;;;;;;18.04;55.96;102262.63;4970395;28;20034;-67
2023/10/05 00:45:53;;;;;;;84.60;80.05;;;;;;;18.04;56.27;102268.94;4962625;28;20045;-67
2023/10/05 00:48:29;;;;;;;82.15;78.25;;;;;;;18.03;56.51;102260.97;4959406;28;20464;-66
2023/10/05 00:51:06;;;;;;;85.80;81.13;;;;;;;18.02;55.98;102265.63;4965698;28;20412;-67
2023/10/05 00:53:32;;;;;;;85.38;81.47;;;;;;;18.01;56.37;102261.22;4968406;28;20058;-67
2023/10/05 00:56:22;;;;;;;86.20;81.45;;;;;;;18.00;56.33;102267.78;4964004;28;20034;-67
2023/10/05 00:58:48;;;;;;;83.30;78.80;;;;;;;17.98;56.43;102267.22;4961617;28;20065;-66
2023/10/05 01:01:15;;;;;;;82.43;78.43;;;;;;;17.98;56.45;102260.91;4970546;28;20133;-67
2023/10/05 01:04:06;;;;;;;84.40;80.40;;;;;;;17.95;56.38;102260.34;4966392;28;20050;-67
2023/10/05 01:06:49;;;;;;;84.20;79.90;;;;;;;17.97;56.57;102264.72;4955797;28;20070;-67
2023/10/05 01:14:53;;;;;;;83.05;78.97;;;;;;;17.89;56.38;102257.78;4955958;28;20041;-67
2023/10/05 01:17:25;;;;;;;82.13;78.43;;;;;;;17.88;56.35;102256.16;4970240;28;20042;-67
2023/10/05 01:19:58;;;;;;;83.10;79.25;;;;;;;17.88;56.20;102258.88;4970279;28;20034;-68
2023/10/05 01:22:36;;;;;;;83.03;79.20;;;;;;;17.86;56.18;102253.66;4958607;28;20130;-67
2023/10/05 01:25:04;;;;;;;85.53;81.47;;;;;;;17.86;56.04;102258.31;4960049;28;20039;-67
2023/10/05 01:27:30;;;;;;;83.43;79.53;;;;;;;17.86;56.69;102255.56;4966858;28;20093;-67
2023/10/05 01:29:56;;;;;;;83.07;78.78;;;;;;;17.85;56.46;102259.41;4954645;28;20047;-67
2023/10/05 01:32:22;;;;;;;82.70;78.90;;;;;;;17.85;56.04;102251.19;4969158;28;20047;-67
2023/10/05 01:34:50;;;;;;;84.50;80.70;;;;;;;17.85;56.03;102251.19;4960606;28;20070;-67
2023/10/05 01:37:30;;;;;;;81.28;77.53;;;;;;;17.84;56.21;102249.53;4957098;28;20042;-67
2023/10/05 01:39:59;;;;;;;79.13;75.47;;;;;;;17.83;56.36;102251.44;4956747;28;20400;-68
2023/10/05 01:42:24;;;;;;;;;;;;;;;17.81;56.56;102250.88;4958053;28;20046;-67
2023/10/05 01:44:49;;;;;;;79.13;75.32;;;;;;;17.82;56.48;102243.53;4969396;28;19926;-67
2023/10/05 01:47:17;;;;;;;79.35;75.78;;;;;;;17.79;56.43;102241.25;4959840;28;20138;-67
2023/10/05 01:49:44;;;;;;;82.40;78.22;;;;;;;17.79;56.54;102247.56;4969196;28;20038;-67
2023/10/05 01:52:09;;;;;;;82.97;78.90;;;;;;;17.79;56.41;102257.63;4961372;28;20039;-67
2023/10/05 01:54:43;;;;;;;82.90;79.15;;;;;;;17.78;56.21;102256.00;4966984;28;20114;-67
2023/10/05 01:57:09;;;;;;;86.03;81.97;;;;;;;17.78;56.57;102250.53;4965765;28;20050;-67
2023/10/05 01:59:36;;;;;;;84.00;80.18;;;;;;;17.77;56.49;102259.81;4969778;28;20058;-67
2023/10/05 02:02:01;;;;;;;84.32;80.30;;;;;;;17.76;56.18;102252.69;4956809;28;20046;-67
2023/10/05 02:04:29;;;;;;;81.35;77.68;;;;;;;17.76;56.22;102261.69;4971100;28;20038;-67
2023/10/05 02:06:55;;;;;;;82.22;78.53;;;;;;;17.76;56.35;102258.16;4967684;28;20049;-67
2023/10/05 02:09:20;;;;;;;82.93;79.13;;;;;;;17.75;56.30;102254.59;4964165;28;20395;-67
2023/10/05 02:11:47;;;;;;;81.38;77.38;;;;;;;17.73;56.40;102246.66;4968370;28;20061;-67
2023/10/05 02:14:16;;;;;;;82.40;78.55;;;;;;;17.74;56.60;102250.22;4967932;28;20419;-67
2023/10/05 02:16:50;;;;;;;82.05;78.15;;;;;;;17.72;56.66;102244.19;4965249;28;20035;-67
2023/10/05 02:19:16;;;;;;;82.72;78.85;;;;;;;17.72;56.31;102244.19;4965736;28;20490;-67
2023/10/05 02:21:43;;;;;;;81.78;77.53;;;;;;;17.71;56.67;102248.81;4967790;28;20062;-67
2023/10/05 02:24:18;;;;;;;84.78;80.47;;;;;;;17.71;56.54;102250.72;4968133;28;20031;-67
2023/10/05 02:26:55;;;;;;;83.45;79.55;;;;;;;17.69;56.47;102250.97;4966554;28;20162;-67
2023/10/05 02:29:21;;;;;;;80.60;76.93;;;;;;;17.68;56.59;102246.56;4964615;28;20038;-67
2023/10/05 02:34:38;;;;;;;80.63;76.97;;;;;;;17.65;56.65;102238.91;4958950;28;20046;-67
2023/10/05 02:37:19;;;;;;;83.05;79.22;;;;;;;17.63;56.10;102227.38;4961887;28;20043;-67
2023/10/05 02:39:45;;;;;;;82.53;78.68;;;;;;;17.62;56.14;102231.22;4962742;28;20031;-67
2023/10/05 02:42:14;;;;;;;80.32;76.53;;;;;;;17.61;56.50;102231.44;4968494;28;20376;-67
2023/10/05 02:44:40;;;;;;;81.90;77.95;;;;;;;17.60;56.20;102227.06;4969599;28;20034;-66
2023/10/05 02:47:10;;;;;;;82.43;78.63;;;;;;;17.60;56.55;102235.28;4963704;28;20047;-67
2023/10/05 02:49:43;;;;;;;81.95;78.00;;;;;;;17.61;56.30;102236.91;4950957;28;20535;-67
2023/10/05 02:52:13;;;;;;;86.30;81.85;;;;;;;17.59;56.27;102230.88;4963676;28;20043;-67
2023/10/05 02:54:39;;;;;;;81.55;77.65;;;;;;;17.58;56.41;102227.31;4965093;28;20070;-67
2023/10/05 02:57:07;;;;;;;83.68;79.65;;;;;;;17.57;56.38;102225.69;4967452;28;20039;-67
2023/10/05 02:59:34;;;;;;;82.23;78.43;;;;;;;17.55;56.25;102218.81;4956355;28;20126;-66
2023/10/05 03:02:06;;;;;;;81.40;77.50;;;;;;;17.54;56.38;102220.72;4971782;28;20067;-67
2023/10/05 03:04:47;;;;;;;81.28;77.38;;;;;;;17.54;56.71;102220.72;4964649;28;20107;-67
2023/10/05 03:07:18;;;;;;;80.88;77.18;;;;;;;17.53;56.24;102224.53;4971258;28;20627;-67
2023/10/05 03:09:46;;;;;;;83.13;79.43;;;;;;;17.52;56.08;102222.88;4972722;28;20431;-67
2023/10/05 03:12:12;;;;;;;83.93;79.95;;;;;;;17.50;56.19;102214.94;4970083;28;20226;-67
2023/10/05 03:14:38;;;;;;;79.15;75.60;;;;;;;17.49;56.57;102216.03;4966786;28;20464;-67
2023/10/05 03:17:12;;;;;;;80.45;76.93;;;;;;;17.50;56.65;102211.38;4963060;28;20066;-67
2023/10/05 03:19:39;;;;;;;79.32;75.80;;;;;;;17.49;56.21;102207.00;4968856;28;20408;-66
2023/10/05 03:22:07;;;;;;;82.40;78.72;;;;;;;17.49;56.28;102215.19;4972161;28;20043;-68
2023/10/05 03:24:36;;;;;;;;;;;;;;;17.47;56.61;102212.72;4972162;28;20399;-66
2023/10/05 03:27:07;;;;;;;75.57;71.88;;;;;;;17.46;56.51;102210.22;4970331;28;19973;-66
2023/10/05 03:29:35;;;;;;;79.40;75.72;;;;;;;17.44;56.65;102218.69;4973445;28;20475;-66
2023/10/05 03:34:39;;;;;;;79.97;75.80;;;;;;;17.43;56.49;102219.75;4962904;28;20031;-67
2023/10/05 03:37:11;;;;;;;81.22;77.47;;;;;;;17.44;56.39;102209.66;4960039;28;20035;-67
2023/10/05 03:42:22;;;;;;;83.07;79.07;;;;;;;17.42;56.42;102209.91;4962164;28;20137;-66
2023/10/05 03:45:03;;;;;;;78.95;75.35;;;;;;;17.42;56.70;102211.81;4967293;28;20055;-66
2023/10/05 03:47:34;;;;;;;78.68;75.15;;;;;;;17.41;56.51;102215.63;4961414;28;20084;-66
2023/10/05 03:49:59;;;;;;;78.95;75.35;;;;;;;17.40;56.14;102216.72;4965204;28;20459;-66
2023/10/05 03:52:29;;;;;;;79.95;75.68;;;;;;;17.39;56.29;102209.59;4968016;28;20035;-66
2023/10/05 03:55:01;;;;;;;79.63;75.85;;;;;;;17.38;56.59;102219.69;4968629;28;20030;-66
2023/10/05 03:57:30;;;;;;;78.93;75.13;;;;;;;17.38;56.26;102218.84;4963980;28;20074;-67
2023/10/05 03:59:57;;;;;;;79.80;76.13;;;;;;;17.38;56.24;102213.41;4968869;28;20038;-66
2023/10/05 04:02:24;;;;;;;82.88;78.88;;;;;;;17.37;56.18;102207.13;4963600;28;20039;-66
2023/10/05 04:04:50;;;;;;;80.32;76.05;;;;;;;17.35;56.31;102206.53;4965351;28;20035;-67
2023/10/05 04:07:16;;;;;;;80.45;76.82;;;;;;;17.34;56.34;102204.91;4960411;28;20057;-67
2023/10/05 04:09:41;;;;;;;80.55;76.45;;;;;;;17.35;56.60;102213.91;4959116;28;20130;-66
2023/10/05 04:12:10;;;;;;;81.15;77.00;;;;;;;17.34;56.27;102214.97;4963180;28;20065;-67
2023/10/05 04:14:38;;;;;;;77.75;74.13;;;;;;;17.34;56.49;102215.81;4965210;28;20046;-67
2023/10/05 04:17:07;;;;;;;80.13;76.43;;;;;;;17.32;56.26;102212.50;4964534;28;20026;-66
2023/10/05 04:19:34;;;;;;;76.63;73.15;;;;;;;17.31;56.72;102208.09;4962615;28;20044;-66
2023/10/05 04:21:59;;;;;;;78.20;73.72;;;;;;;17.31;56.57;102205.38;4962832;28;20429;-66
2023/10/05 04:24:26;;;;;;;80.93;76.90;;;;;;;17.30;56.29;102206.47;4957690;28;20043;-66
2023/10/05 04:26:52;;;;;;;77.35;73.75;;;;;;;17.30;56.62;102207.28;4969217;28;20051;-66
2023/10/05 04:29:20;;;;;;;80.07;76.38;;;;;;;17.29;56.60;102200.19;4965947;28;20045;-66
2023/10/05 04:31:48;;;;;;;78.72;74.82;;;;;;;17.28;56.71;102206.72;4965633;28;20039;-66
2023/10/05 04:34:18;;;;;;;77.90;74.28;;;;;;;17.28;56.24;102203.16;4969003;28;20130;-67
2023/10/05 04:36:44;;;;;;;79.43;75.82;;;;;;;17.27;56.63;102202.34;4968244;28;20125;-66
2023/10/05 04:39:12;;;;;;;79.85;76.25;;;;;;;17.27;56.24;102204.25;4965317;28;20043;-66
2023/10/05 04:41:39;;;;;;;76.70;73.10;;;;;;;17.27;56.38;102206.97;4955275;28;20062;-66
2023/10/05 04:44:12;;;;;;;77.10;73.57;;;;;;;17.25;56.35;102199.03;4967676;28;20038;-66
2023/10/05 04:46:41;;;;;;;78.38;74.43;;;;;;;17.23;56.61;102201.16;4961352;28;20035;-66
2023/10/05 04:49:09;;;;;;;79.72;75.63;;;;;;;17.24;56.72;102204.75;4960847;28;20125;-66
2023/10/05 04:51:37;;;;;;;81.68;77.40;;;;;;;17.23;56.20;102203.91;4963108;28;20380;-67
2023/10/05 04:54:02;;;;;;;79.05;75.25;;;;;;;17.22;56.49;102202.25;4964349;28;20149;-67
2023/10/05 04:56:35;;;;;;;80.13;76.30;;;;;;;17.23;56.21;102203.09;4969750;28;20125;-69
2023/10/05 05:07:01;;;;;;;76.63;72.97;;;;;;;17.17;56.47;102215.84;4953835;28;20554;-68
2023/10/05 05:09:30;;;;;;;80.30;76.05;;;;;;;17.16;56.55;102211.47;4962591;28;20550;-68
2023/10/05 05:12:05;;;;;;;76.90;73.30;;;;;;;17.16;56.27;102216.94;4970216;28;20138;-68
2023/10/05 05:14:35;;;;;;;80.80;76.80;;;;;;;17.15;56.53;102220.72;4964171;28;20045;-67
2023/10/05 05:17:02;;;;;;;79.22;75.53;;;;;;;17.14;56.44;102221.81;4965940;28;20057;-68
2023/10/05 05:19:37;;;;;;;78.45;74.65;;;;;;;17.13;56.42;102231.06;4966851;28;20546;-68
2023/10/05 05:22:05;;;;;;;80.35;76.53;;;;;;;17.13;56.62;102233.78;4964189;28;20082;-68
2023/10/05 05:24:31;;;;;;;78.78;74.78;;;;;;;17.12;56.50;102234.88;4962673;28;20467;-68
2023/10/05 05:27:38;;;;;;;75.00;71.60;;;;;;;17.11;56.81;102227.78;4970448;28;20121;-66
2023/10/05 05:29:45;;;;;;;77.95;73.88;;;;;;;17.11;56.43;102229.66;4962173;28;20067;-67
2023/10/05 05:32:11;;;;;;;79.45;75.75;;;;;;;17.08;56.79;102223.66;4962269;28;20031;-68
2023/10/05 05:34:50;;;;;;;78.05;74.25;;;;;;;17.09;56.52;102219.00;4968749;28;20463;-68
2023/10/05 05:37:25;;;;;;;;;;;;;;;17.07;56.49;102218.44;4970946;28;20045;-68
2023/10/05 05:39:50;;;;;;;74.50;71.00;;;;;;;17.05;56.68;102221.41;4970619;28;19914;-68
2023/10/05 05:42:18;;;;;;;76.30;72.35;;;;;;;17.04;56.89;102221.66;4967358;28;20038;-68
2023/10/05 05:44:44;;;;;;;72.75;69.35;;;;;;;17.03;56.58;102215.38;4964547;28;20372;-71
2023/10/05 05:47:10;;;;;;;78.70;75.10;;;;;;;17.04;56.61;102221.66;4962879;28;20038;-67
2023/10/05 05:49:36;;;;;;;76.88;72.93;;;;;;;17.03;56.41;102222.72;4952925;28;20036;-67
2023/10/05 05:52:05;;;;;;;78.63;74.93;;;;;;;17.02;56.85;102229.28;4970231;28;20217;-68
2023/10/05 05:54:31;;;;;;;77.05;73.35;;;;;;;17.03;56.70;102222.72;4952725;28;20079;-68
2023/10/05 05:56:57;;;;;;;78.72;74.60;;;;;;;17.02;56.50;102226.53;4964599;28;20047;-66
2023/10/05 05:59:22;;;;;;;77.43;73.32;;;;;;;17.02;56.73;102227.38;4951089;28;20043;-67
2023/10/05 06:01:50;;;;;;;77.28;73.60;;;;;;;17.00;56.50;102224.06;4957661;28;20514;-68
2023/10/05 06:04:16;;;;;;;75.43;72.03;;;;;;;17.00;56.47;102226.78;4956895;28;20126;-66
2023/10/05 06:06:43;;;;;;;79.05;74.75;;;;;;;17.01;56.46;102233.06;4966333;28;20581;-67
2023/10/05 06:09:10;;;;;;;77.20;73.60;;;;;;;17.00;56.78;102234.16;4957490;28;20030;-66
2023/10/05 06:11:36;;;;;;;78.35;74.65;;;;;;;17.00;56.32;102239.59;4965646;28;20471;-68
2023/10/05 06:14:02;;;;;;;78.97;74.95;;;;;;;17.00;56.53;102245.06;4956155;28;20122;-68
2023/10/05 06:16:30;;;;;;;78.93;75.25;;;;;;;16.99;56.49;102241.53;4954487;28;20054;-68
2023/10/05 06:18:55;;;;;;;79.15;75.25;;;;;;;16.97;56.73;102249.13;4967153;28;20114;-67
2023/10/05 06:21:21;;;;;;;75.80;71.82;;;;;;;16.97;56.57;102253.75;4970061;28;20484;-67
2023/10/05 06:23:46;;;;;;;79.40;75.50;;;;;;;16.97;56.78;102253.75;4962223;28;20039;-67
2023/10/05 06:26:12;;;;;;;78.47;74.88;;;;;;;16.97;56.53;102257.31;4967339;28;20129;-67
2023/10/05 06:28:39;;;;;;;78.25;74.55;;;;;;;16.96;56.19;102252.09;4966554;28;20039;-66
2023/10/05 06:31:05;;;;;;;78.72;74.28;;;;;;;16.97;56.76;102259.22;4961587;28;20035;-66
2023/10/05 06:33:33;;;;;;;79.22;74.85;;;;;;;16.96;56.49;102263.88;4971672;28;20145;-66
2023/10/05 06:35:58;;;;;;;74.47;70.60;;;;;;;16.97;56.88;102265.50;4969393;28;20117;-65
2023/10/05 06:38:23;;;;;;;76.70;73.00;;;;;;;16.96;56.57;102263.00;4973933;28;20182;-67
2023/10/05 06:40:49;;;;;;;81.80;77.80;;;;;;;16.96;56.85;102271.19;4958915;28;20157;-69
2023/10/05 06:43:15;;;;;;;79.00;75.30;;;;;;;16.96;56.49;102273.94;4966574;28;20043;-65
2023/10/05 06:45:44;;;;;;;77.05;73.45;;;;;;;16.96;56.92;102282.13;4955758;28;20043;-66
2023/10/05 06:48:10;;;;;;;76.18;72.38;;;;;;;16.96;56.46;102277.50;4965142;28;20042;-67
2023/10/05 06:50:36;;;;;;;81.40;77.45;;;;;;;16.95;56.31;102280.47;4967809;28;20041;-67
2023/10/05 06:53:01;;;;;;;76.25;72.15;;;;;;;16.94;56.66;102282.38;4969743;28;20043;-66
2023/10/05 06:55:28;;;;;;;77.18;73.65;;;;;;;16.93;56.62;102280.72;4961518;28;20058;-67
2023/10/05 06:57:53;;;;;;;75.75;72.22;;;;;;;16.93;56.64;102286.16;4970888;28;20039;-66
2023/10/05 07:00:22;;;;;;;75.45;71.72;;;;;;;16.94;56.74;102295.22;4966364;28;20062;-66
2023/10/05 07:02:58;;;;;;;79.25;75.35;;;;;;;16.93;56.53;102299.00;4959941;28;20202;-68
2023/10/05 07:05:24;;;;;;;75.20;71.40;;;;;;;16.93;56.62;102304.44;4963399;28;20067;-67
2023/10/05 07:07:50;;;;;;;75.53;71.80;;;;;;;16.92;56.53;102294.63;4958099;28;20207;-67
2023/10/05 07:10:15;;;;;;;75.03;71.03;;;;;;;16.91;56.51;102299.25;4959259;28;20039;-66
2023/10/05 07:12:45;;;;;;;78.40;74.70;;;;;;;16.89;56.78;102300.59;4959476;28;20889;-67
2023/10/05 07:15:11;;;;;;;75.22;71.43;;;;;;;16.89;56.70;102312.31;4962650;28;20162;-67
2023/10/05 07:17:37;;;;;;;79.22;75.15;;;;;;;16.90;56.60;102304.94;4965913;28;20113;-68
2023/10/05 07:20:11;;;;;;;75.07;71.18;;;;;;;16.90;56.52;102304.94;4964899;28;20118;-67
2023/10/05 07:22:37;;;;;;;76.95;72.85;;;;;;;16.89;56.68;102311.50;4962326;28;20035;-68
2023/10/05 07:25:04;;;;;;;75.68;72.13;;;;;;;16.89;56.49;102312.31;4966425;28;20113;-67
2023/10/05 07:27:30;;;;;;;76.32;72.63;;;;;;;16.89;56.57;102319.69;4962740;28;20555;-68
2023/10/05 07:29:55;;;;;;;77.18;72.88;;;;;;;16.89;57.13;102325.16;4970626;28;20118;-66
2023/10/05 07:32:20;;;;;;;78.57;74.53;;;;;;;16.88;57.06;102332.47;4968418;28;20035;-67
2023/10/05 07:34:46;;;;;;;75.18;71.28;;;;;;;16.87;56.85;102334.38;4964063;28;20062;-73
2023/10/05 07:37:11;;;;;;;101.38;96.55;;;;;;;16.89;56.95;102333.34;4963332;28;20037;-73
2023/10/05 07:39:41;;;;;;;104.40;99.40;;;;;;;16.86;57.16;102338.22;4969677;28;20046;-78
2023/10/05 07:42:10;;;;;;;100.88;94.53;;;;;;;16.89;56.95;102341.53;4961087;28;20035;-77
2023/10/05 07:44:39;;;;;;;96.85;92.00;;;;;;;16.88;56.89;102337.94;4970392;28;20039;-74
2023/10/05 07:47:06;;;;;;;94.78;90.38;;;;;;;16.91;57.03;102344.81;4968356;28;20061;-70
2023/10/05 07:49:35;;;;;;;93.07;88.75;;;;;;;16.89;57.23;102339.63;4963172;28;20039;-65
2023/10/05 07:52:07;;;;;;;96.53;92.10;;;;;;;16.89;56.89;102339.63;4967660;28;20133;-85
2023/10/05 07:54:38;;;;;;;89.93;85.53;;;;;;;16.89;57.41;102336.06;4967706;28;20486;-67
2023/10/05 07:57:09;;;;;;;92.05;86.75;;;;;;;16.89;57.62;102336.06;4964185;28;20039;-73
2023/10/05 07:59:35;;;;;;;91.72;86.65;;;;;;;16.89;57.36;102342.34;4968820;28;20117;-67
2023/10/05 08:02:01;;;;;;;88.32;83.55;;;;;;;16.90;57.21;102343.16;4966038;28;20026;-65
2023/10/05 08:04:27;;;;;;;92.43;87.82;;;;;;;16.92;57.21;102357.41;4966259;28;20054;-65
2023/10/05 08:06:54;;;;;;;91.03;86.10;;;;;;;16.91;57.55;102348.38;4959470;28;20053;-65
2023/10/05 08:09:20;;;;;;;90.10;84.07;;;;;;;16.93;57.36;102351.69;4969937;28;20035;-66
2023/10/05 08:11:50;;;;;;;89.32;83.43;;;;;;;16.94;57.39;102349.81;4964725;28;20305;-67
2023/10/05 08:14:21;;;;;;;85.68;81.65;;;;;;;16.94;57.53;102367.00;4965610;28;20566;-67
2023/10/05 08:16:50;;;;;;;88.82;84.53;;;;;;;16.95;57.42;102359.63;4964754;28;20053;-66
2023/10/05 08:19:24;;;;;;;;;;;;;;;16.96;57.56;102364.00;4969557;28;20391;-66
2023/10/05 08:21:53;;;;;;;86.47;81.60;;;;;;;16.96;57.46;102359.41;4968157;28;19922;-77
2023/10/05 08:24:19;;;;;;;;;;;;;;;16.97;57.78;102362.94;4965899;28;20118;-71
2023/10/05 08:26:45;;;;;;;83.10;78.72;;;;;;;16.96;57.48;102355.81;4961012;28;20013;-73
2023/10/05 08:29:11;;;;;;;85.50;81.25;;;;;;;16.96;57.88;102372.19;4966089;28;20426;-65
2023/10/05 08:31:37;;;;;;;87.70;83.45;;;;;;;16.96;57.97;102378.50;4965661;28;20469;-65
2023/10/05 08:34:09;;;;;;;89.38;85.03;;;;;;;17.00;57.91;102381.56;4964036;28;20034;-65
2023/10/05 08:36:34;;;;;;;88.25;83.53;;;;;;;17.02;57.91;102382.16;4967897;28;20035;-72
2023/10/05 08:39:00;;;;;;;89.70;85.10;;;;;;;17.05;57.67;102379.75;4963394;28;20076;-69
2023/10/05 08:41:35;;;;;;;89.65;85.28;;;;;;;17.07;57.95;102385.78;4967505;28;20126;-65
2023/10/05 08:44:06;;;;;;;88.25;83.25;;;;;;;17.08;57.90;102392.91;4963841;28;20036;-67
2023/10/05 08:46:43;;;;;;;90.35;85.30;;;;;;;17.09;57.66;102393.75;4968860;28;20069;-71
2023/10/05 08:49:10;;;;;;;88.13;84.00;;;;;;;17.10;58.14;102400.84;4968923;28;20478;-66
2023/10/05 08:51:39;;;;;;;89.53;85.32;;;;;;;17.11;58.24;102394.34;4967628;28;21031;-67
2023/10/05 08:54:09;;;;;;;90.93;86.60;;;;;;;17.11;57.96;102397.06;4964271;28;20114;-67
2023/10/05 08:56:36;;;;;;;93.05;88.53;;;;;;;17.13;57.82;102396.78;4966415;28;20371;-66
2023/10/05 08:59:07;;;;;;;92.90;87.85;;;;;;;17.15;58.20;102405.56;4964186;28;20047;-69
2023/10/05 09:01:34;;;;;;;91.70;86.88;;;;;;;17.15;58.30;102402.84;4970061;28;20046;-65
2023/10/05 09:06:48;;;;;;;88.63;84.38;;;;;;;17.17;58.29;102414.34;4964571;28;20097;-66
2023/10/05 09:09:38;;;;;;;89.40;84.72;;;;;;;17.19;58.48;102418.50;4962959;28;20034;-65
2023/10/05 09:12:18;;;;;;;90.13;85.70;;;;;;;17.21;58.05;102427.28;4963626;28;20051;-65
2023/10/05 09:14:46;;;;;;;93.97;89.28;;;;;;;17.23;58.36;102433.28;4965245;28;20510;-65
2023/10/05 09:17:15;;;;;;;90.22;85.22;;;;;;;17.26;57.88;102431.97;4963447;28;20050;-66
2023/10/05 09:19:43;;;;;;;90.85;86.20;;;;;;;17.27;57.94;102434.47;4964720;28;20043;-73
2023/10/05 09:24:34;;;;;;;90.72;85.93;;;;;;;17.33;58.10;102432.66;4967664;28;20403;-65
2023/10/05 09:27:12;;;;;;;93.03;88.22;;;;;;;17.35;58.02;102438.69;4967492;28;20129;-68
2023/10/05 09:29:40;;;;;;;89.63;85.00;;;;;;;17.36;58.33;102434.91;4962323;28;20113;-65
2023/10/05 09:32:10;;;;;;;92.35;88.18;;;;;;;17.36;58.36;102436.78;4966750;28;20642;-67
2023/10/05 09:34:38;;;;;;;90.60;85.97;;;;;;;17.37;57.93;102438.47;4962582;28;20118;-67
2023/10/05 09:37:06;;;;;;;89.60;84.97;;;;;;;17.38;58.04;102437.38;4964815;28;20046;-70
2023/10/05 09:39:43;;;;;;;93.68;89.28;;;;;;;17.40;58.37;102432.50;4967953;28;20368;-67
2023/10/05 09:42:25;;;;;;;92.13;87.43;;;;;;;17.42;58.32;102435.81;4964869;28;20043;-71
2023/10/05 09:44:52;;;;;;;90.10;85.75;;;;;;;17.44;58.43;102442.69;4967038;28;20519;-72
2023/10/05 09:47:20;;;;;;;93.25;88.75;;;;;;;17.46;58.04;102447.88;4964558;28;20062;-72
2023/10/05 09:49:48;;;;;;;92.90;87.75;;;;;;;17.46;58.40;102447.88;4964603;28;20043;-83
2023/10/05 09:52:15;;;;;;;92.93;88.30;;;;;;;17.46;58.18;102437.81;4968100;28;20054;-73
2023/10/05 09:54:42;;;;;;;91.90;86.85;;;;;;;17.50;58.72;102443.59;4965491;28;20800;-72
2023/10/05 09:57:12;;;;;;;91.60;87.00;;;;;;;17.53;58.56;102440.38;4965068;28;20037;-75
2023/10/05 09:59:41;;;;;;;92.82;87.80;;;;;;;17.55;58.42;102446.41;4959726;28;20122;-66
2023/10/05 10:02:12;;;;;;;94.28;89.43;;;;;;;17.58;58.74;102442.34;4963857;28;20139;-65
2023/10/05 10:04:39;;;;;;;93.95;88.90;;;;;;;17.60;58.75;102441.03;4964116;28;20067;-65
2023/10/05 10:07:15;;;;;;;92.22;87.82;;;;;;;17.63;58.53;102437.78;4968098;28;20062;-65
2023/10/05 10:09:46;;;;;;;96.70;91.75;;;;;;;17.66;58.24;102428.28;4971570;28;20451;-65
2023/10/05 10:12:25;;;;;;;97.38;92.80;;;;;;;17.68;58.66;102426.94;4968700;28;20053;-65
2023/10/05 10:14:51;;;;;;;96.70;92.20;;;;;;;17.70;58.76;102429.44;4963280;28;20443;-66
2023/10/05 10:17:24;;;;;;;93.32;88.30;;;;;;;17.71;58.87;102439.28;4967884;28;20475;-65
2023/10/05 10:20:15;;;;;;;94.00;89.45;;;;;;;17.72;58.92;102436.31;4968231;28;20053;-67
2023/10/05 10:23:19;;;;;;;91.90;87.68;;;;;;;17.73;58.59;102434.41;4960558;28;20047;-66
2023/10/05 10:25:46;;;;;;;92.63;87.95;;;;;;;17.74;58.95;102436.06;4968564;28;20500;-66
2023/10/05 10:28:49;;;;;;;97.30;92.05;;;;;;;17.74;58.58;102431.44;4967636;28;20035;-66
2023/10/05 10:31:19;;;;;;;94.40;89.68;;;;;;;17.76;58.84;102433.91;4972025;28;20027;-66
2023/10/05 10:33:51;;;;;;;95.38;90.72;;;;;;;17.77;58.87;102437.47;4960244;28;20054;-66
2023/10/05 10:36:25;;;;;;;96.13;90.63;;;;;;;17.78;58.88;102433.66;4966808;28;20476;-66
2023/10/05 10:38:51;;;;;;;96.15;91.30;;;;;;;17.80;58.51;102431.53;4961606;28;20046;-66
2023/10/05 10:41:22;;;;;;;93.20;88.70;;;;;;;17.82;58.87;102434.84;4964422;28;20030;-66
2023/10/05 10:43:57;;;;;;;94.90;90.35;;;;;;;17.83;58.87;102431.84;4972377;28;20447;-66
2023/10/05 10:46:30;;;;;;;95.43;90.63;;;;;;;17.84;58.71;102433.53;4963232;28;20031;-66
2023/10/05 10:48:59;;;;;;;95.03;90.22;;;;;;;17.87;58.35;102429.47;4969374;28;20034;-66
2023/10/05 10:51:32;;;;;;;96.75;91.90;;;;;;;17.88;58.53;102431.09;4966788;28;20043;-67
2023/10/05 10:54:14;;;;;;;99.28;93.88;;;;;;;17.90;58.53;102431.69;4970692;28;20062;-67
2023/10/05 10:56:44;;;;;;;98.25;92.68;;;;;;;17.91;58.13;102433.34;4970079;28;20035;-66
2023/10/05 10:59:20;;;;;;;96.35;91.68;;;;;;;17.93;58.44;102433.91;4968798;28;20085;-66
2023/10/05 11:01:52;;;;;;;93.53;88.75;;;;;;;17.95;58.22;102438.06;4962806;28;20042;-66
2023/10/05 11:04:25;;;;;;;94.20;89.63;;;;;;;17.97;58.00;102435.06;4967541;28;20045;-66
2023/10/05 11:07:08;;;;;;;95.95;91.07;;;;;;;17.99;58.15;102432.91;4965608;28;20062;-67
2023/10/05 11:09:36;;;;;;;94.07;89.50;;;;;;;18.00;58.41;102434.56;4964948;28;20623;-68
2023/10/05 11:12:11;;;;;;;;;;;;;;;18.02;58.39;102437.06;4968912;28;20094;-67
2023/10/05 11:14:40;;;;;;;92.10;87.65;;;;;;;18.03;58.15;102445.00;4965656;28;19922;-73
2023/10/05 11:17:23;;;;;;;95.10;89.57;;;;;;;18.05;58.45;102444.75;4969990;28;20043;-74
2023/10/05 11:19:49;;;;;;;92.97;88.72;;;;;;;18.08;58.40;102442.34;4967833;28;20042;-74
2023/10/05 11:22:23;;;;;;;97.10;92.53;;;;;;;18.11;57.99;102451.94;4964355;28;20251;-71
2023/10/05 11:25:14;;;;;;;94.03;89.57;;;;;;;18.14;58.22;102438.59;4967531;28;20035;-74
2023/10/05 11:27:48;;;;;;;98.30;93.38;;;;;;;18.19;57.83;102428.81;4965958;28;20085;-73
2023/10/05 11:30:21;;;;;;;97.88;92.97;;;;;;;18.22;58.08;102429.13;4965294;28;20031;-72
2023/10/05 11:32:54;;;;;;;96.43;90.93;;;;;;;18.27;58.14;102436.56;4969332;28;20051;-72
2023/10/05 11:35:29;;;;;;;98.88;93.40;;;;;;;18.29;57.73;102427.03;4958700;28;20442;-78
2023/10/05 11:37:58;;;;;;;96.47;92.07;;;;;;;18.33;58.07;102424.63;4968273;28;20034;-73
2023/10/05 11:40:27;;;;;;;;;;;;;;;18.35;57.49;102420.56;4959325;28;20494;-72
2023/10/05 11:42:52;;;;;;;94.90;90.38;;;;;;;18.37;57.40;102428.53;4963839;28;19922;-72
2023/10/05 11:45:18;;;;;;;97.32;92.88;;;;;;;18.39;57.81;102426.31;4956386;28;20027;-73
2023/10/05 11:47:54;;;;;;;98.25;93.85;;;;;;;18.42;57.44;102427.72;4966878;28;20490;-73
2023/10/05 11:50:32;;;;;;;100.47;95.68;;;;;;;18.46;57.72;102428.88;4965324;28;20630;-72